sensor_id;sensor_type;location;lat;lon;timestamp;P1;durP1;ratioP1;P2;durP2;ratioP2
55655;SDS011;41530;52.382;5.270;2022-12-15T00:01:57;6.55;;;4.00;;
55655;SDS011;41530;52.382;5.270;2022-12-15T00:04:43;6.03;;;3.72;;
55655;SDS011;41530;52.382;5.270;2022-12-15T00:07:29;5.60;;;3.87;;
55655;SDS011;41530;52.382;5.270;2022-12-15T00:10:14;4.65;;;3.15;;
55655;SDS011;41530;52.382;5.270;2022-12-15T00:12:59;6.90;;;3.97;;
55655;SDS011;41530;52.382;5.270;2022-12-15T00:15:45;5.47;;;3.63;;
55655;SDS011;41530;52.382;5.270;2022-12-15T00:18:31;6.28;;;3.80;;
55655;SDS011;41530;52.382;5.270;2022-12-15T00:21:16;5.33;;;3.30;;
55655;SDS011;41530;52.382;5.270;2022-12-15T00:24:01;6.60;;;3.90;;
55655;SDS011;41530;52.382;5.270;2022-12-15T00:26:46;4.95;;;3.38;;
55655;SDS011;41530;52.382;5.270;2022-12-15T00:29:31;5.30;;;3.28;;
55655;SDS011;41530;52.382;5.270;2022-12-15T00:32:17;5.28;;;3.70;;
55655;SDS011;41530;52.382;5.270;2022-12-15T00:35:02;6.50;;;3.50;;
55655;SDS011;41530;52.382;5.270;2022-12-15T00:37:48;5.85;;;3.75;;
55655;SDS011;41530;52.382;5.270;2022-12-15T00:40:33;4.82;;;3.13;;
55655;SDS011;41530;52.382;5.270;2022-12-15T00:43:00;5.82;;;3.60;;
55655;SDS011;41530;52.382;5.270;2022-12-15T00:45:27;6.05;;;3.83;;
55655;SDS011;41530;52.382;5.270;2022-12-15T00:48:14;4.72;;;3.55;;
55655;SDS011;41530;52.382;5.270;2022-12-15T00:50:43;6.32;;;3.28;;
55655;SDS011;41530;52.382;5.270;2022-12-15T00:53:22;5.50;;;3.28;;
55655;SDS011;41530;52.382;5.270;2022-12-15T00:56:08;5.57;;;3.50;;
55655;SDS011;41530;52.382;5.270;2022-12-15T00:58:53;5.85;;;3.25;;
55655;SDS011;41530;52.382;5.270;2022-12-15T01:01:39;5.68;;;3.22;;
55655;SDS011;41530;52.382;5.270;2022-12-15T01:04:24;7.43;;;3.58;;
55655;SDS011;41530;52.382;5.270;2022-12-15T01:07:09;6.50;;;3.27;;
55655;SDS011;41530;52.382;5.270;2022-12-15T01:09:55;5.27;;;3.17;;
55655;SDS011;41530;52.382;5.270;2022-12-15T01:12:40;7.35;;;3.70;;
55655;SDS011;41530;52.382;5.270;2022-12-15T01:15:25;4.93;;;3.05;;
55655;SDS011;41530;52.382;5.270;2022-12-15T01:18:11;6.03;;;3.47;;
55655;SDS011;41530;52.382;5.270;2022-12-15T01:21:00;4.50;;;2.85;;
55655;SDS011;41530;52.382;5.270;2022-12-15T01:23:30;6.32;;;3.00;;
55655;SDS011;41530;52.382;5.270;2022-12-15T01:25:58;4.55;;;3.10;;
55655;SDS011;41530;52.382;5.270;2022-12-15T01:28:25;4.97;;;3.35;;
55655;SDS011;41530;52.382;5.270;2022-12-15T01:30:52;5.90;;;3.47;;
55655;SDS011;41530;52.382;5.270;2022-12-15T01:33:19;6.13;;;3.20;;
55655;SDS011;41530;52.382;5.270;2022-12-15T01:35:59;7.85;;;3.40;;
55655;SDS011;41530;52.382;5.270;2022-12-15T01:38:27;4.43;;;3.28;;
55655;SDS011;41530;52.382;5.270;2022-12-15T01:44:42;5.35;;;3.10;;
55655;SDS011;41530;52.382;5.270;2022-12-15T01:47:12;4.63;;;3.28;;
55655;SDS011;41530;52.382;5.270;2022-12-15T01:49:40;5.22;;;2.97;;
55655;SDS011;41530;52.382;5.270;2022-12-15T01:52:08;4.60;;;3.08;;
55655;SDS011;41530;52.382;5.270;2022-12-15T01:54:41;5.18;;;2.78;;
55655;SDS011;41530;52.382;5.270;2022-12-15T01:57:16;4.10;;;3.03;;
55655;SDS011;41530;52.382;5.270;2022-12-15T01:59:51;6.82;;;3.60;;
55655;SDS011;41530;52.382;5.270;2022-12-15T02:02:22;3.63;;;2.72;;
55655;SDS011;41530;52.382;5.270;2022-12-15T02:04:53;6.65;;;2.97;;
55655;SDS011;41530;52.382;5.270;2022-12-15T02:07:22;5.60;;;2.80;;
55655;SDS011;41530;52.382;5.270;2022-12-15T02:09:48;4.30;;;2.90;;
55655;SDS011;41530;52.382;5.270;2022-12-15T02:15:18;4.07;;;2.65;;
55655;SDS011;41530;52.382;5.270;2022-12-15T02:20:29;5.15;;;2.85;;
55655;SDS011;41530;52.382;5.270;2022-12-15T02:32:06;4.40;;;2.80;;
55655;SDS011;41530;52.382;5.270;2022-12-15T02:37:14;4.00;;;2.80;;
55655;SDS011;41530;52.382;5.270;2022-12-15T02:39:42;4.97;;;2.95;;
55655;SDS011;41530;52.382;5.270;2022-12-15T02:42:09;4.68;;;2.75;;
55655;SDS011;41530;52.382;5.270;2022-12-15T02:44:38;4.45;;;2.90;;
55655;SDS011;41530;52.382;5.270;2022-12-15T02:55:47;4.13;;;2.63;;
55655;SDS011;41530;52.382;5.270;2022-12-15T03:01:29;4.13;;;2.85;;
55655;SDS011;41530;52.382;5.270;2022-12-15T03:03:58;4.53;;;2.63;;
55655;SDS011;41530;52.382;5.270;2022-12-15T03:06:29;3.45;;;2.40;;
55655;SDS011;41530;52.382;5.270;2022-12-15T03:08:56;4.88;;;2.85;;
55655;SDS011;41530;52.382;5.270;2022-12-15T03:11:23;4.10;;;2.55;;
55655;SDS011;41530;52.382;5.270;2022-12-15T03:13:50;3.95;;;2.38;;
55655;SDS011;41530;52.382;5.270;2022-12-15T03:16:18;4.75;;;2.80;;
55655;SDS011;41530;52.382;5.270;2022-12-15T03:18:45;3.72;;;2.70;;
55655;SDS011;41530;52.382;5.270;2022-12-15T03:21:12;3.58;;;2.58;;
55655;SDS011;41530;52.382;5.270;2022-12-15T03:23:39;3.83;;;2.70;;
55655;SDS011;41530;52.382;5.270;2022-12-15T03:26:06;3.53;;;2.70;;
55655;SDS011;41530;52.382;5.270;2022-12-15T03:28:33;3.72;;;2.90;;
55655;SDS011;41530;52.382;5.270;2022-12-15T03:31:00;4.15;;;2.63;;
55655;SDS011;41530;52.382;5.270;2022-12-15T03:33:27;4.43;;;2.90;;
55655;SDS011;41530;52.382;5.270;2022-12-15T03:35:54;7.53;;;2.58;;
55655;SDS011;41530;52.382;5.270;2022-12-15T03:38:21;3.78;;;2.63;;
55655;SDS011;41530;52.382;5.270;2022-12-15T03:40:48;3.47;;;2.65;;
55655;SDS011;41530;52.382;5.270;2022-12-15T03:43:15;4.55;;;2.67;;
55655;SDS011;41530;52.382;5.270;2022-12-15T03:45:41;3.00;;;2.47;;
55655;SDS011;41530;52.382;5.270;2022-12-15T03:48:08;4.03;;;2.67;;
55655;SDS011;41530;52.382;5.270;2022-12-15T03:50:35;4.70;;;2.83;;
55655;SDS011;41530;52.382;5.270;2022-12-15T03:53:03;3.28;;;2.40;;
55655;SDS011;41530;52.382;5.270;2022-12-15T03:55:30;4.50;;;2.90;;
55655;SDS011;41530;52.382;5.270;2022-12-15T03:57:57;5.18;;;2.60;;
55655;SDS011;41530;52.382;5.270;2022-12-15T04:00:24;3.67;;;2.88;;
55655;SDS011;41530;52.382;5.270;2022-12-15T04:02:51;4.13;;;2.65;;
55655;SDS011;41530;52.382;5.270;2022-12-15T04:07:48;3.83;;;2.92;;
55655;SDS011;41530;52.382;5.270;2022-12-15T04:10:14;4.43;;;2.80;;
55655;SDS011;41530;52.382;5.270;2022-12-15T04:12:42;4.68;;;3.00;;
55655;SDS011;41530;52.382;5.270;2022-12-15T04:15:09;4.03;;;2.92;;
55655;SDS011;41530;52.382;5.270;2022-12-15T04:17:37;4.65;;;2.88;;
55655;SDS011;41530;52.382;5.270;2022-12-15T04:20:04;3.72;;;2.78;;
55655;SDS011;41530;52.382;5.270;2022-12-15T04:22:39;5.38;;;2.75;;
55655;SDS011;41530;52.382;5.270;2022-12-15T04:25:10;5.40;;;3.10;;
55655;SDS011;41530;52.382;5.270;2022-12-15T04:27:57;4.43;;;2.95;;
55655;SDS011;41530;52.382;5.270;2022-12-15T04:30:44;4.10;;;2.63;;
55655;SDS011;41530;52.382;5.270;2022-12-15T04:33:33;4.35;;;2.70;;
55655;SDS011;41530;52.382;5.270;2022-12-15T04:36:20;5.20;;;3.33;;
55655;SDS011;41530;52.382;5.270;2022-12-15T04:39:06;3.78;;;2.88;;
55655;SDS011;41530;52.382;5.270;2022-12-15T04:41:51;3.90;;;2.70;;
55655;SDS011;41530;52.382;5.270;2022-12-15T04:44:38;3.35;;;2.60;;
55655;SDS011;41530;52.382;5.270;2022-12-15T04:47:24;4.10;;;2.53;;
55655;SDS011;41530;52.382;5.270;2022-12-15T04:50:09;4.63;;;3.00;;
55655;SDS011;41530;52.382;5.270;2022-12-15T04:52:54;3.92;;;2.58;;
55655;SDS011;41530;52.382;5.270;2022-12-15T04:55:39;4.03;;;3.00;;
55655;SDS011;41530;52.382;5.270;2022-12-15T04:58:25;3.15;;;2.63;;
55655;SDS011;41530;52.382;5.270;2022-12-15T05:01:10;5.15;;;2.45;;
55655;SDS011;41530;52.382;5.270;2022-12-15T05:03:55;4.80;;;2.70;;
55655;SDS011;41530;52.382;5.270;2022-12-15T05:06:40;4.28;;;2.67;;
55655;SDS011;41530;52.382;5.270;2022-12-15T05:09:25;5.20;;;2.65;;
55655;SDS011;41530;52.382;5.270;2022-12-15T05:12:10;3.58;;;2.47;;
55655;SDS011;41530;52.382;5.270;2022-12-15T05:14:56;3.15;;;2.45;;
55655;SDS011;41530;52.382;5.270;2022-12-15T05:17:41;3.20;;;2.42;;
55655;SDS011;41530;52.382;5.270;2022-12-15T05:20:26;3.50;;;2.42;;
55655;SDS011;41530;52.382;5.270;2022-12-15T05:23:15;3.53;;;2.13;;
55655;SDS011;41530;52.382;5.270;2022-12-15T05:26:00;3.83;;;2.65;;
55655;SDS011;41530;52.382;5.270;2022-12-15T05:28:45;3.65;;;2.20;;
55655;SDS011;41530;52.382;5.270;2022-12-15T05:31:30;3.33;;;2.28;;
55655;SDS011;41530;52.382;5.270;2022-12-15T05:34:15;3.53;;;2.67;;
55655;SDS011;41530;52.382;5.270;2022-12-15T05:36:41;2.80;;;2.30;;
55655;SDS011;41530;52.382;5.270;2022-12-15T05:39:08;2.38;;;2.10;;
55655;SDS011;41530;52.382;5.270;2022-12-15T05:41:35;2.70;;;2.20;;
55655;SDS011;41530;52.382;5.270;2022-12-15T05:44:01;3.63;;;2.45;;
55655;SDS011;41530;52.382;5.270;2022-12-15T05:46:28;3.45;;;2.35;;
55655;SDS011;41530;52.382;5.270;2022-12-15T05:48:55;4.55;;;2.55;;
55655;SDS011;41530;52.382;5.270;2022-12-15T05:51:21;2.28;;;1.80;;
55655;SDS011;41530;52.382;5.270;2022-12-15T05:53:48;3.35;;;2.17;;
55655;SDS011;41530;52.382;5.270;2022-12-15T05:56:15;5.82;;;2.88;;
55655;SDS011;41530;52.382;5.270;2022-12-15T05:58:42;3.88;;;2.20;;
55655;SDS011;41530;52.382;5.270;2022-12-15T06:01:14;4.10;;;2.45;;
55655;SDS011;41530;52.382;5.270;2022-12-15T06:03:42;3.65;;;2.13;;
55655;SDS011;41530;52.382;5.270;2022-12-15T06:06:10;4.53;;;2.30;;
55655;SDS011;41530;52.382;5.270;2022-12-15T06:08:38;3.83;;;2.50;;
55655;SDS011;41530;52.382;5.270;2022-12-15T06:11:07;3.65;;;2.47;;
55655;SDS011;41530;52.382;5.270;2022-12-15T06:13:36;3.83;;;2.55;;
55655;SDS011;41530;52.382;5.270;2022-12-15T06:16:04;3.65;;;2.28;;
55655;SDS011;41530;52.382;5.270;2022-12-15T06:18:38;3.95;;;2.10;;
55655;SDS011;41530;52.382;5.270;2022-12-15T06:21:10;3.88;;;2.28;;
55655;SDS011;41530;52.382;5.270;2022-12-15T06:23:40;2.35;;;2.10;;
55655;SDS011;41530;52.382;5.270;2022-12-15T06:26:16;3.03;;;2.30;;
55655;SDS011;41530;52.382;5.270;2022-12-15T06:28:44;3.35;;;2.10;;
55655;SDS011;41530;52.382;5.270;2022-12-15T06:31:12;2.88;;;2.30;;
55655;SDS011;41530;52.382;5.270;2022-12-15T06:33:39;2.85;;;2.30;;
55655;SDS011;41530;52.382;5.270;2022-12-15T06:36:08;2.80;;;2.45;;
55655;SDS011;41530;52.382;5.270;2022-12-15T06:38:37;2.45;;;1.92;;
55655;SDS011;41530;52.382;5.270;2022-12-15T06:41:05;3.55;;;2.58;;
55655;SDS011;41530;52.382;5.270;2022-12-15T06:43:32;3.90;;;2.33;;
55655;SDS011;41530;52.382;5.270;2022-12-15T06:46:00;4.57;;;2.65;;
55655;SDS011;41530;52.382;5.270;2022-12-15T06:48:27;9.68;;;2.53;;
55655;SDS011;41530;52.382;5.270;2022-12-15T06:50:54;7.15;;;3.05;;
55655;SDS011;41530;52.382;5.270;2022-12-15T06:53:21;11.00;;;4.35;;
55655;SDS011;41530;52.382;5.270;2022-12-15T06:55:49;8.18;;;3.28;;
55655;SDS011;41530;52.382;5.270;2022-12-15T06:58:16;8.88;;;3.08;;
55655;SDS011;41530;52.382;5.270;2022-12-15T07:00:44;4.75;;;2.55;;
55655;SDS011;41530;52.382;5.270;2022-12-15T07:03:15;6.50;;;2.90;;
55655;SDS011;41530;52.382;5.270;2022-12-15T07:05:44;8.18;;;2.65;;
55655;SDS011;41530;52.382;5.270;2022-12-15T07:08:13;7.43;;;2.72;;
55655;SDS011;41530;52.382;5.270;2022-12-15T07:10:41;7.65;;;3.05;;
55655;SDS011;41530;52.382;5.270;2022-12-15T07:13:09;4.68;;;2.63;;
55655;SDS011;41530;52.382;5.270;2022-12-15T07:15:37;6.00;;;2.53;;
55655;SDS011;41530;52.382;5.270;2022-12-15T07:18:06;3.45;;;2.53;;
55655;SDS011;41530;52.382;5.270;2022-12-15T07:20:32;5.35;;;2.50;;
55655;SDS011;41530;52.382;5.270;2022-12-15T07:22:59;4.15;;;2.60;;
55655;SDS011;41530;52.382;5.270;2022-12-15T07:25:28;5.97;;;3.20;;
55655;SDS011;41530;52.382;5.270;2022-12-15T07:27:55;5.05;;;2.63;;
55655;SDS011;41530;52.382;5.270;2022-12-15T07:30:21;9.50;;;2.75;;
55655;SDS011;41530;52.382;5.270;2022-12-15T07:32:48;3.45;;;2.20;;
55655;SDS011;41530;52.382;5.270;2022-12-15T07:35:15;5.10;;;2.50;;
55655;SDS011;41530;52.382;5.270;2022-12-15T07:37:43;5.32;;;2.95;;
55655;SDS011;41530;52.382;5.270;2022-12-15T07:40:09;4.70;;;2.20;;
55655;SDS011;41530;52.382;5.270;2022-12-15T07:42:36;9.57;;;2.65;;
55655;SDS011;41530;52.382;5.270;2022-12-15T07:45:03;3.88;;;1.85;;
55655;SDS011;41530;52.382;5.270;2022-12-15T07:47:31;4.38;;;2.15;;
55655;SDS011;41530;52.382;5.270;2022-12-15T07:49:58;6.55;;;2.25;;
55655;SDS011;41530;52.382;5.270;2022-12-15T07:52:24;4.28;;;2.40;;
55655;SDS011;41530;52.382;5.270;2022-12-15T07:54:51;5.18;;;1.83;;
55655;SDS011;41530;52.382;5.270;2022-12-15T07:57:18;3.70;;;2.15;;
55655;SDS011;41530;52.382;5.270;2022-12-15T07:59:45;4.03;;;2.30;;
55655;SDS011;41530;52.382;5.270;2022-12-15T08:02:12;9.25;;;2.30;;
55655;SDS011;41530;52.382;5.270;2022-12-15T08:04:39;5.47;;;1.90;;
55655;SDS011;41530;52.382;5.270;2022-12-15T08:07:07;6.15;;;2.40;;
55655;SDS011;41530;52.382;5.270;2022-12-15T08:09:34;8.05;;;2.53;;
55655;SDS011;41530;52.382;5.270;2022-12-15T08:12:01;8.68;;;2.38;;
55655;SDS011;41530;52.382;5.270;2022-12-15T08:14:28;4.32;;;2.10;;
55655;SDS011;41530;52.382;5.270;2022-12-15T08:16:59;6.45;;;2.40;;
55655;SDS011;41530;52.382;5.270;2022-12-15T08:19:25;6.82;;;2.80;;
55655;SDS011;41530;52.382;5.270;2022-12-15T08:21:52;5.78;;;2.40;;
55655;SDS011;41530;52.382;5.270;2022-12-15T08:24:19;5.90;;;2.25;;
55655;SDS011;41530;52.382;5.270;2022-12-15T08:26:46;8.07;;;2.42;;
55655;SDS011;41530;52.382;5.270;2022-12-15T08:29:15;7.95;;;2.92;;
55655;SDS011;41530;52.382;5.270;2022-12-15T08:32:02;6.38;;;2.33;;
55655;SDS011;41530;52.382;5.270;2022-12-15T08:34:30;6.78;;;2.65;;
55655;SDS011;41530;52.382;5.270;2022-12-15T08:36:57;9.93;;;2.20;;
55655;SDS011;41530;52.382;5.270;2022-12-15T08:39:24;8.60;;;2.65;;
55655;SDS011;41530;52.382;5.270;2022-12-15T08:41:50;10.57;;;2.88;;
55655;SDS011;41530;52.382;5.270;2022-12-15T08:44:17;5.05;;;2.10;;
55655;SDS011;41530;52.382;5.270;2022-12-15T08:46:43;6.80;;;2.60;;
55655;SDS011;41530;52.382;5.270;2022-12-15T08:49:10;6.80;;;2.60;;
55655;SDS011;41530;52.382;5.270;2022-12-15T08:51:43;9.68;;;2.30;;
55655;SDS011;41530;52.382;5.270;2022-12-15T08:54:09;7.20;;;2.58;;
55655;SDS011;41530;52.382;5.270;2022-12-15T08:56:36;5.78;;;2.60;;
55655;SDS011;41530;52.382;5.270;2022-12-15T08:59:03;5.28;;;2.42;;
55655;SDS011;41530;52.382;5.270;2022-12-15T09:01:31;6.70;;;2.90;;
55655;SDS011;41530;52.382;5.270;2022-12-15T09:03:58;6.38;;;2.35;;
55655;SDS011;41530;52.382;5.270;2022-12-15T09:06:28;9.90;;;2.78;;
55655;SDS011;41530;52.382;5.270;2022-12-15T09:08:58;8.98;;;2.72;;
55655;SDS011;41530;52.382;5.270;2022-12-15T09:11:30;7.95;;;2.80;;
55655;SDS011;41530;52.382;5.270;2022-12-15T09:13:57;7.78;;;2.63;;
55655;SDS011;41530;52.382;5.270;2022-12-15T09:16:24;8.10;;;2.65;;
55655;SDS011;41530;52.382;5.270;2022-12-15T09:18:53;5.47;;;2.63;;
55655;SDS011;41530;52.382;5.270;2022-12-15T09:21:23;6.35;;;2.60;;
55655;SDS011;41530;52.382;5.270;2022-12-15T09:23:53;7.35;;;2.70;;
55655;SDS011;41530;52.382;5.270;2022-12-15T09:26:22;6.18;;;2.60;;
55655;SDS011;41530;52.382;5.270;2022-12-15T09:28:50;7.05;;;2.28;;
55655;SDS011;41530;52.382;5.270;2022-12-15T09:31:18;4.68;;;2.20;;
55655;SDS011;41530;52.382;5.270;2022-12-15T09:33:47;5.00;;;2.10;;
55655;SDS011;41530;52.382;5.270;2022-12-15T09:36:16;6.43;;;2.38;;
55655;SDS011;41530;52.382;5.270;2022-12-15T09:38:43;4.15;;;2.22;;
55655;SDS011;41530;52.382;5.270;2022-12-15T09:43:53;5.30;;;2.50;;
55655;SDS011;41530;52.382;5.270;2022-12-15T09:49:02;8.23;;;2.42;;
55655;SDS011;41530;52.382;5.270;2022-12-15T09:51:38;5.22;;;2.00;;
55655;SDS011;41530;52.382;5.270;2022-12-15T09:54:10;5.45;;;2.28;;
55655;SDS011;41530;52.382;5.270;2022-12-15T09:56:45;3.88;;;2.15;;
55655;SDS011;41530;52.382;5.270;2022-12-15T09:59:26;5.80;;;2.10;;
55655;SDS011;41530;52.382;5.270;2022-12-15T10:02:00;5.10;;;2.50;;
55655;SDS011;41530;52.382;5.270;2022-12-15T10:07:44;4.35;;;1.65;;
55655;SDS011;41530;52.382;5.270;2022-12-15T10:12:53;7.45;;;1.88;;
55655;SDS011;41530;52.382;5.270;2022-12-15T10:15:28;3.63;;;2.08;;
55655;SDS011;41530;52.382;5.270;2022-12-15T10:18:05;3.72;;;2.08;;
55655;SDS011;41530;52.382;5.270;2022-12-15T10:20:36;2.85;;;1.55;;
55655;SDS011;41530;52.382;5.270;2022-12-15T10:23:11;3.85;;;1.70;;
55655;SDS011;41530;52.382;5.270;2022-12-15T10:25:41;3.28;;;1.90;;
55655;SDS011;41530;52.382;5.270;2022-12-15T10:31:12;3.43;;;1.90;;
55655;SDS011;41530;52.382;5.270;2022-12-15T10:33:45;2.55;;;1.70;;
55655;SDS011;41530;52.382;5.270;2022-12-15T10:36:19;6.13;;;1.97;;
55655;SDS011;41530;52.382;5.270;2022-12-15T10:38:46;4.65;;;2.00;;
55655;SDS011;41530;52.382;5.270;2022-12-15T10:41:19;3.22;;;1.77;;
55655;SDS011;41530;52.382;5.270;2022-12-15T10:43:48;4.43;;;1.52;;
55655;SDS011;41530;52.382;5.270;2022-12-15T10:46:23;2.42;;;1.50;;
55655;SDS011;41530;52.382;5.270;2022-12-15T10:48:54;4.55;;;1.70;;
55655;SDS011;41530;52.382;5.270;2022-12-15T10:56:46;2.83;;;1.42;;
55655;SDS011;41530;52.382;5.270;2022-12-15T11:05:00;3.00;;;1.50;;
55655;SDS011;41530;52.382;5.270;2022-12-15T11:07:32;4.30;;;1.58;;
55655;SDS011;41530;52.382;5.270;2022-12-15T11:10:11;4.53;;;1.60;;
55655;SDS011;41530;52.382;5.270;2022-12-15T11:12:40;2.65;;;1.70;;
55655;SDS011;41530;52.382;5.270;2022-12-15T11:18:01;3.70;;;1.52;;
55655;SDS011;41530;52.382;5.270;2022-12-15T11:20:58;3.80;;;1.83;;
55655;SDS011;41530;52.382;5.270;2022-12-15T11:26:31;3.78;;;1.55;;
55655;SDS011;41530;52.382;5.270;2022-12-15T11:31:44;2.55;;;1.60;;
55655;SDS011;41530;52.382;5.270;2022-12-15T11:34:35;1.95;;;1.40;;
55655;SDS011;41530;52.382;5.270;2022-12-15T11:48:40;1.98;;;1.50;;
55655;SDS011;41530;52.382;5.270;2022-12-15T11:51:15;3.08;;;1.50;;
55655;SDS011;41530;52.382;5.270;2022-12-15T12:00:00;1.83;;;1.40;;
55655;SDS011;41530;52.382;5.270;2022-12-15T12:07:48;3.33;;;1.38;;
55655;SDS011;41530;52.382;5.270;2022-12-15T12:13:25;2.67;;;1.50;;
55655;SDS011;41530;52.382;5.270;2022-12-15T12:16:04;1.88;;;1.40;;
55655;SDS011;41530;52.382;5.270;2022-12-15T12:21:17;3.80;;;1.33;;
55655;SDS011;41530;52.382;5.270;2022-12-15T12:23:52;2.10;;;1.50;;
55655;SDS011;41530;52.382;5.270;2022-12-15T12:29:05;2.13;;;1.35;;
55655;SDS011;41530;52.382;5.270;2022-12-15T12:37:51;2.15;;;1.35;;
55655;SDS011;41530;52.382;5.270;2022-12-15T12:42:55;1.85;;;1.23;;
55655;SDS011;41530;52.382;5.270;2022-12-15T12:45:26;1.30;;;1.17;;
55655;SDS011;41530;52.382;5.270;2022-12-15T12:47:56;3.35;;;1.75;;
55655;SDS011;41530;52.382;5.270;2022-12-15T12:50:32;2.47;;;1.60;;
55655;SDS011;41530;52.382;5.270;2022-12-15T12:53:00;2.45;;;1.10;;
55655;SDS011;41530;52.382;5.270;2022-12-15T12:55:33;3.50;;;1.40;;
55655;SDS011;41530;52.382;5.270;2022-12-15T13:01:31;2.90;;;1.80;;
55655;SDS011;41530;52.382;5.270;2022-12-15T13:04:11;3.33;;;1.70;;
55655;SDS011;41530;52.382;5.270;2022-12-15T13:09:39;2.10;;;1.60;;
55655;SDS011;41530;52.382;5.270;2022-12-15T13:12:32;1.85;;;1.30;;
55655;SDS011;41530;52.382;5.270;2022-12-15T13:15:30;2.88;;;1.48;;
55655;SDS011;41530;52.382;5.270;2022-12-15T13:18:06;3.53;;;1.38;;
55655;SDS011;41530;52.382;5.270;2022-12-15T13:20:37;2.47;;;1.80;;
55655;SDS011;41530;52.382;5.270;2022-12-15T13:39:04;1.70;;;1.27;;
55655;SDS011;41530;52.382;5.270;2022-12-15T13:44:46;2.55;;;1.42;;
55655;SDS011;41530;52.382;5.270;2022-12-15T13:52:49;2.78;;;1.38;;
55655;SDS011;41530;52.382;5.270;2022-12-15T13:55:38;1.77;;;1.40;;
55655;SDS011;41530;52.382;5.270;2022-12-15T13:58:18;2.28;;;1.50;;
55655;SDS011;41530;52.382;5.270;2022-12-15T14:00:52;4.95;;;1.42;;
55655;SDS011;41530;52.382;5.270;2022-12-15T14:03:21;3.35;;;1.40;;
55655;SDS011;41530;52.382;5.270;2022-12-15T14:05:53;1.63;;;1.35;;
55655;SDS011;41530;52.382;5.270;2022-12-15T14:08:21;2.85;;;1.52;;
55655;SDS011;41530;52.382;5.270;2022-12-15T14:10:57;2.63;;;1.50;;
55655;SDS011;41530;52.382;5.270;2022-12-15T14:13:47;2.30;;;1.58;;
55655;SDS011;41530;52.382;5.270;2022-12-15T14:16:19;3.47;;;1.67;;
55655;SDS011;41530;52.382;5.270;2022-12-15T14:19:10;1.65;;;1.48;;
55655;SDS011;41530;52.382;5.270;2022-12-15T14:21:54;1.60;;;1.50;;
55655;SDS011;41530;52.382;5.270;2022-12-15T14:24:31;2.47;;;1.70;;
55655;SDS011;41530;52.382;5.270;2022-12-15T14:27:06;3.13;;;1.60;;
55655;SDS011;41530;52.382;5.270;2022-12-15T14:29:34;4.13;;;1.80;;
55655;SDS011;41530;52.382;5.270;2022-12-15T14:32:00;1.80;;;1.50;;
55655;SDS011;41530;52.382;5.270;2022-12-15T14:35:01;4.00;;;1.50;;
55655;SDS011;41530;52.382;5.270;2022-12-15T14:37:20;2.50;;;1.70;;
55655;SDS011;41530;52.382;5.270;2022-12-15T14:39:48;3.55;;;1.80;;
55655;SDS011;41530;52.382;5.270;2022-12-15T14:42:25;2.90;;;1.70;;
55655;SDS011;41530;52.382;5.270;2022-12-15T14:44:53;3.50;;;1.75;;
55655;SDS011;41530;52.382;5.270;2022-12-15T14:50:00;2.72;;;1.42;;
55655;SDS011;41530;52.382;5.270;2022-12-15T14:55:02;3.72;;;1.80;;
55655;SDS011;41530;52.382;5.270;2022-12-15T14:57:47;2.42;;;1.75;;
55655;SDS011;41530;52.382;5.270;2022-12-15T15:00:28;3.80;;;1.70;;
55655;SDS011;41530;52.382;5.270;2022-12-15T15:05:46;3.10;;;2.00;;
55655;SDS011;41530;52.382;5.270;2022-12-15T15:08:25;2.08;;;1.42;;
55655;SDS011;41530;52.382;5.270;2022-12-15T15:10:57;3.00;;;1.50;;
55655;SDS011;41530;52.382;5.270;2022-12-15T15:13:39;3.08;;;1.58;;
55655;SDS011;41530;52.382;5.270;2022-12-15T15:16:06;2.55;;;1.67;;
55655;SDS011;41530;52.382;5.270;2022-12-15T15:18:43;2.33;;;1.50;;
55655;SDS011;41530;52.382;5.270;2022-12-15T15:21:19;2.97;;;1.50;;
55655;SDS011;41530;52.382;5.270;2022-12-15T15:23:59;1.70;;;1.45;;
55655;SDS011;41530;52.382;5.270;2022-12-15T15:26:45;1.88;;;1.52;;
55655;SDS011;41530;52.382;5.270;2022-12-15T15:32:15;3.60;;;1.80;;
55655;SDS011;41530;52.382;5.270;2022-12-15T15:34:43;2.60;;;1.50;;
55655;SDS011;41530;52.382;5.270;2022-12-15T15:37:31;3.30;;;1.98;;
55655;SDS011;41530;52.382;5.270;2022-12-15T15:39:57;2.25;;;1.55;;
55655;SDS011;41530;52.382;5.270;2022-12-15T15:42:23;3.00;;;1.95;;
55655;SDS011;41530;52.382;5.270;2022-12-15T15:44:57;2.35;;;1.92;;
55655;SDS011;41530;52.382;5.270;2022-12-15T15:47:25;3.92;;;1.73;;
55655;SDS011;41530;52.382;5.270;2022-12-15T15:49:53;2.85;;;2.03;;
55655;SDS011;41530;52.382;5.270;2022-12-15T15:52:23;3.08;;;1.95;;
55655;SDS011;41530;52.382;5.270;2022-12-15T15:54:50;2.20;;;1.58;;
55655;SDS011;41530;52.382;5.270;2022-12-15T15:57:18;3.70;;;1.67;;
55655;SDS011;41530;52.382;5.270;2022-12-15T15:59:44;2.63;;;1.58;;
55655;SDS011;41530;52.382;5.270;2022-12-15T16:02:12;4.65;;;1.73;;
55655;SDS011;41530;52.382;5.270;2022-12-15T16:04:40;1.88;;;1.65;;
55655;SDS011;41530;52.382;5.270;2022-12-15T16:07:30;2.97;;;1.98;;
55655;SDS011;41530;52.382;5.270;2022-12-15T16:09:55;2.97;;;2.05;;
55655;SDS011;41530;52.382;5.270;2022-12-15T16:12:25;2.50;;;2.00;;
55655;SDS011;41530;52.382;5.270;2022-12-15T16:14:54;3.33;;;2.20;;
55655;SDS011;41530;52.382;5.270;2022-12-15T16:17:22;3.40;;;1.98;;
55655;SDS011;41530;52.382;5.270;2022-12-15T16:19:50;2.83;;;1.95;;
55655;SDS011;41530;52.382;5.270;2022-12-15T16:22:18;2.58;;;2.05;;
55655;SDS011;41530;52.382;5.270;2022-12-15T16:24:46;4.43;;;2.25;;
55655;SDS011;41530;52.382;5.270;2022-12-15T16:27:13;4.22;;;2.38;;
55655;SDS011;41530;52.382;5.270;2022-12-15T16:29:41;2.58;;;1.90;;
55655;SDS011;41530;52.382;5.270;2022-12-15T16:32:08;2.67;;;1.58;;
55655;SDS011;41530;52.382;5.270;2022-12-15T16:34:37;2.83;;;1.77;;
55655;SDS011;41530;52.382;5.270;2022-12-15T16:37:03;3.85;;;2.10;;
55655;SDS011;41530;52.382;5.270;2022-12-15T16:39:31;2.47;;;1.80;;
55655;SDS011;41530;52.382;5.270;2022-12-15T16:41:59;2.45;;;2.10;;
55655;SDS011;41530;52.382;5.270;2022-12-15T16:44:26;2.70;;;2.10;;
55655;SDS011;41530;52.382;5.270;2022-12-15T16:46:54;3.60;;;2.20;;
55655;SDS011;41530;52.382;5.270;2022-12-15T16:49:22;3.40;;;2.30;;
55655;SDS011;41530;52.382;5.270;2022-12-15T16:51:50;3.25;;;2.10;;
55655;SDS011;41530;52.382;5.270;2022-12-15T16:54:23;5.30;;;2.30;;
55655;SDS011;41530;52.382;5.270;2022-12-15T16:56:52;3.35;;;2.30;;
55655;SDS011;41530;52.382;5.270;2022-12-15T16:59:20;4.57;;;2.50;;
55655;SDS011;41530;52.382;5.270;2022-12-15T17:01:59;3.28;;;2.50;;
55655;SDS011;41530;52.382;5.270;2022-12-15T17:04:26;5.70;;;2.65;;
55655;SDS011;41530;52.382;5.270;2022-12-15T17:06:53;3.80;;;2.80;;
55655;SDS011;41530;52.382;5.270;2022-12-15T17:09:21;5.22;;;2.80;;
55655;SDS011;41530;52.382;5.270;2022-12-15T17:11:51;3.25;;;2.22;;
55655;SDS011;41530;52.382;5.270;2022-12-15T17:14:17;4.15;;;2.60;;
55655;SDS011;41530;52.382;5.270;2022-12-15T17:16:44;3.83;;;2.50;;
55655;SDS011;41530;52.382;5.270;2022-12-15T17:19:11;5.47;;;2.80;;
55655;SDS011;41530;52.382;5.270;2022-12-15T17:21:49;4.53;;;2.63;;
55655;SDS011;41530;52.382;5.270;2022-12-15T17:24:18;6.32;;;2.90;;
55655;SDS011;41530;52.382;5.270;2022-12-15T17:26:47;5.10;;;2.60;;
55655;SDS011;41530;52.382;5.270;2022-12-15T17:29:15;4.28;;;2.85;;
55655;SDS011;41530;52.382;5.270;2022-12-15T17:31:45;5.55;;;2.78;;
55655;SDS011;41530;52.382;5.270;2022-12-15T17:34:31;4.32;;;2.92;;
55655;SDS011;41530;52.382;5.270;2022-12-15T17:36:59;5.25;;;3.20;;
55655;SDS011;41530;52.382;5.270;2022-12-15T17:39:28;5.22;;;3.05;;
55655;SDS011;41530;52.382;5.270;2022-12-15T17:41:55;6.47;;;3.50;;
55655;SDS011;41530;52.382;5.270;2022-12-15T17:44:27;8.40;;;3.35;;
55655;SDS011;41530;52.382;5.270;2022-12-15T17:47:00;5.47;;;3.17;;
55655;SDS011;41530;52.382;5.270;2022-12-15T17:49:27;7.15;;;3.33;;
55655;SDS011;41530;52.382;5.270;2022-12-15T17:52:01;6.63;;;3.40;;